sensor_id;sensor_type;location;lat;lon;timestamp;temperature;humidity
44509;DHT22;30214;52.246;14.408;2024-01-11T00:01:26;-9.70;99.90
44509;DHT22;30214;52.246;14.408;2024-01-11T00:03:55;-9.70;99.90
44509;DHT22;30214;52.246;14.408;2024-01-11T00:06:23;-9.70;99.90
44509;DHT22;30214;52.246;14.408;2024-01-11T00:08:50;-9.70;99.90
44509;DHT22;30214;52.246;14.408;2024-01-11T00:11:17;-9.70;99.90
44509;DHT22;30214;52.246;14.408;2024-01-11T00:13:44;-9.90;99.90
44509;DHT22;30214;52.246;14.408;2024-01-11T00:16:11;-9.90;99.90
44509;DHT22;30214;52.246;14.408;2024-01-11T00:18:38;-9.90;99.90
44509;DHT22;30214;52.246;14.408;2024-01-11T00:21:07;-10.00;99.90
44509;DHT22;30214;52.246;14.408;2024-01-11T00:23:34;-9.90;99.90
44509;DHT22;30214;52.246;14.408;2024-01-11T00:26:00;-9.90;99.90
44509;DHT22;30214;52.246;14.408;2024-01-11T00:28:28;-10.00;99.90
44509;DHT22;30214;52.246;14.408;2024-01-11T00:30:55;-9.90;99.90
44509;DHT22;30214;52.246;14.408;2024-01-11T00:33:22;-10.00;99.90
44509;DHT22;30214;52.246;14.408;2024-01-11T00:35:49;-10.00;99.90
44509;DHT22;30214;52.246;14.408;2024-01-11T00:38:17;-10.00;99.90
44509;DHT22;30214;52.246;14.408;2024-01-11T00:40:44;-10.00;99.90
44509;DHT22;30214;52.246;14.408;2024-01-11T00:43:11;-10.10;99.90
44509;DHT22;30214;52.246;14.408;2024-01-11T00:45:38;-10.10;99.90
44509;DHT22;30214;52.246;14.408;2024-01-11T00:48:05;-10.20;99.90
44509;DHT22;30214;52.246;14.408;2024-01-11T00:50:32;-10.20;99.90
44509;DHT22;30214;52.246;14.408;2024-01-11T00:52:59;-10.20;99.90
44509;DHT22;30214;52.246;14.408;2024-01-11T00:55:28;-10.20;99.90
44509;DHT22;30214;52.246;14.408;2024-01-11T00:57:55;-10.20;99.90
44509;DHT22;30214;52.246;14.408;2024-01-11T01:00:22;-10.20;99.90
44509;DHT22;30214;52.246;14.408;2024-01-11T01:02:48;-10.20;99.90
44509;DHT22;30214;52.246;14.408;2024-01-11T01:05:15;-10.30;99.90
44509;DHT22;30214;52.246;14.408;2024-01-11T01:07:42;-10.30;99.90
44509;DHT22;30214;52.246;14.408;2024-01-11T01:10:11;-10.20;99.90
44509;DHT22;30214;52.246;14.408;2024-01-11T01:12:39;-10.20;99.90
44509;DHT22;30214;52.246;14.408;2024-01-11T01:15:06;-10.20;99.90
44509;DHT22;30214;52.246;14.408;2024-01-11T01:17:34;-10.20;99.90
44509;DHT22;30214;52.246;14.408;2024-01-11T01:20:01;-10.20;99.90
44509;DHT22;30214;52.246;14.408;2024-01-11T01:22:28;-10.20;99.90
44509;DHT22;30214;52.246;14.408;2024-01-11T01:24:54;-10.20;99.90
44509;DHT22;30214;52.246;14.408;2024-01-11T01:27:21;-10.20;99.90
44509;DHT22;30214;52.246;14.408;2024-01-11T01:29:49;-10.20;99.90
44509;DHT22;30214;52.246;14.408;2024-01-11T01:32:16;-10.20;99.90
44509;DHT22;30214;52.246;14.408;2024-01-11T01:34:43;-10.30;99.90
44509;DHT22;30214;52.246;14.408;2024-01-11T01:37:10;-10.20;99.90
44509;DHT22;30214;52.246;14.408;2024-01-11T01:39:38;-10.20;99.90
44509;DHT22;30214;52.246;14.408;2024-01-11T01:42:05;-10.20;99.90
44509;DHT22;30214;52.246;14.408;2024-01-11T01:44:32;-10.10;99.90
44509;DHT22;30214;52.246;14.408;2024-01-11T01:47:00;-10.10;99.90
44509;DHT22;30214;52.246;14.408;2024-01-11T01:49:27;-10.10;99.90
44509;DHT22;30214;52.246;14.408;2024-01-11T01:51:54;-10.00;99.90
44509;DHT22;30214;52.246;14.408;2024-01-11T01:54:21;-10.00;99.90
44509;DHT22;30214;52.246;14.408;2024-01-11T01:56:49;-10.00;99.90
44509;DHT22;30214;52.246;14.408;2024-01-11T01:59:16;-10.00;99.90
44509;DHT22;30214;52.246;14.408;2024-01-11T02:01:44;-10.00;99.90
44509;DHT22;30214;52.246;14.408;2024-01-11T02:04:12;-10.10;99.90
44509;DHT22;30214;52.246;14.408;2024-01-11T02:06:41;-10.10;99.90
44509;DHT22;30214;52.246;14.408;2024-01-11T02:09:09;-10.00;99.90
44509;DHT22;30214;52.246;14.408;2024-01-11T02:11:36;-9.90;99.90
44509;DHT22;30214;52.246;14.408;2024-01-11T02:14:04;-9.90;99.90
44509;DHT22;30214;52.246;14.408;2024-01-11T02:16:31;-9.90;99.90
44509;DHT22;30214;52.246;14.408;2024-01-11T02:18:58;-9.90;99.90
44509;DHT22;30214;52.246;14.408;2024-01-11T02:21:29;-9.80;99.90
44509;DHT22;30214;52.246;14.408;2024-01-11T02:24:02;-9.80;99.90
44509;DHT22;30214;52.246;14.408;2024-01-11T02:26:29;-9.80;99.90
44509;DHT22;30214;52.246;14.408;2024-01-11T02:28:56;-9.70;99.90
44509;DHT22;30214;52.246;14.408;2024-01-11T02:31:23;-9.70;99.90
44509;DHT22;30214;52.246;14.408;2024-01-11T02:33:54;-9.60;99.90
44509;DHT22;30214;52.246;14.408;2024-01-11T02:36:22;-9.70;99.90
44509;DHT22;30214;52.246;14.408;2024-01-11T02:38:49;-9.70;99.90
44509;DHT22;30214;52.246;14.408;2024-01-11T02:41:18;-9.70;99.90
44509;DHT22;30214;52.246;14.408;2024-01-11T02:43:46;-9.70;99.90
44509;DHT22;30214;52.246;14.408;2024-01-11T02:46:13;-9.80;99.90
44509;DHT22;30214;52.246;14.408;2024-01-11T02:48:42;-9.80;99.90
44509;DHT22;30214;52.246;14.408;2024-01-11T02:51:08;-9.80;99.90
44509;DHT22;30214;52.246;14.408;2024-01-11T02:53:35;-9.80;99.90
44509;DHT22;30214;52.246;14.408;2024-01-11T02:56:04;-9.90;99.90
44509;DHT22;30214;52.246;14.408;2024-01-11T02:58:33;-10.00;99.90
44509;DHT22;30214;52.246;14.408;2024-01-11T03:01:00;-10.10;99.90
44509;DHT22;30214;52.246;14.408;2024-01-11T03:03:27;-10.20;99.90
44509;DHT22;30214;52.246;14.408;2024-01-11T03:05:54;-10.20;99.90
44509;DHT22;30214;52.246;14.408;2024-01-11T03:08:21;-10.10;99.90
44509;DHT22;30214;52.246;14.408;2024-01-11T03:10:48;-9.90;99.90
44509;DHT22;30214;52.246;14.408;2024-01-11T03:13:14;-9.80;99.90
44509;DHT22;30214;52.246;14.408;2024-01-11T03:15:45;-9.80;99.90
44509;DHT22;30214;52.246;14.408;2024-01-11T03:18:12;-9.80;99.90
44509;DHT22;30214;52.246;14.408;2024-01-11T03:20:39;-9.80;99.90
44509;DHT22;30214;52.246;14.408;2024-01-11T03:23:06;-9.70;99.90
44509;DHT22;30214;52.246;14.408;2024-01-11T03:25:33;-9.70;99.90
44509;DHT22;30214;52.246;14.408;2024-01-11T03:28:00;-9.70;99.90
44509;DHT22;30214;52.246;14.408;2024-01-11T03:30:27;-9.70;99.90
44509;DHT22;30214;52.246;14.408;2024-01-11T03:32:55;-9.80;99.90
44509;DHT22;30214;52.246;14.408;2024-01-11T03:35:22;-9.90;99.90
44509;DHT22;30214;52.246;14.408;2024-01-11T03:37:49;-10.00;99.90
44509;DHT22;30214;52.246;14.408;2024-01-11T03:40:17;-10.00;99.90
44509;DHT22;30214;52.246;14.408;2024-01-11T03:42:44;-9.90;99.90
44509;DHT22;30214;52.246;14.408;2024-01-11T03:45:11;-9.90;99.90
44509;DHT22;30214;52.246;14.408;2024-01-11T03:47:38;-9.90;99.90
44509;DHT22;30214;52.246;14.408;2024-01-11T03:50:06;-9.90;99.90
44509;DHT22;30214;52.246;14.408;2024-01-11T03:52:34;-9.90;99.90
44509;DHT22;30214;52.246;14.408;2024-01-11T03:55:01;-9.90;99.90
44509;DHT22;30214;52.246;14.408;2024-01-11T03:57:28;-9.90;99.90
44509;DHT22;30214;52.246;14.408;2024-01-11T03:59:54;-9.80;99.90
44509;DHT22;30214;52.246;14.408;2024-01-11T04:02:21;-9.80;99.90
44509;DHT22;30214;52.246;14.408;2024-01-11T04:04:48;-9.90;99.90
44509;DHT22;30214;52.246;14.408;2024-01-11T04:07:17;-9.80;99.90
44509;DHT22;30214;52.246;14.408;2024-01-11T04:09:44;-9.80;99.90
44509;DHT22;30214;52.246;14.408;2024-01-11T04:12:11;-9.70;99.90
44509;DHT22;30214;52.246;14.408;2024-01-11T04:14:38;-9.60;99.90
44509;DHT22;30214;52.246;14.408;2024-01-11T04:17:06;-9.50;99.90
44509;DHT22;30214;52.246;14.408;2024-01-11T04:19:33;-9.50;99.90
44509;DHT22;30214;52.246;14.408;2024-01-11T04:22:00;-9.50;99.90
44509;DHT22;30214;52.246;14.408;2024-01-11T04:24:28;-9.50;99.90
44509;DHT22;30214;52.246;14.408;2024-01-11T04:26:55;-9.60;99.90
44509;DHT22;30214;52.246;14.408;2024-01-11T04:29:22;-9.50;99.90
44509;DHT22;30214;52.246;14.408;2024-01-11T04:31:49;-9.50;99.90
44509;DHT22;30214;52.246;14.408;2024-01-11T04:34:16;-9.50;99.90
44509;DHT22;30214;52.246;14.408;2024-01-11T04:36:43;-9.40;99.90
44509;DHT22;30214;52.246;14.408;2024-01-11T04:39:10;-9.40;99.90
44509;DHT22;30214;52.246;14.408;2024-01-11T04:41:39;-9.40;99.90
44509;DHT22;30214;52.246;14.408;2024-01-11T04:44:06;-9.40;99.90
44509;DHT22;30214;52.246;14.408;2024-01-11T04:46:33;-9.30;99.90
44509;DHT22;30214;52.246;14.408;2024-01-11T04:49:00;-9.30;99.90
44509;DHT22;30214;52.246;14.408;2024-01-11T04:51:28;-9.30;99.90
44509;DHT22;30214;52.246;14.408;2024-01-11T04:53:54;-9.30;99.90
44509;DHT22;30214;52.246;14.408;2024-01-11T04:56:22;-9.30;99.90
44509;DHT22;30214;52.246;14.408;2024-01-11T04:58:51;-9.20;99.90
44509;DHT22;30214;52.246;14.408;2024-01-11T05:01:18;-9.30;99.90
44509;DHT22;30214;52.246;14.408;2024-01-11T05:03:45;-9.30;99.90
44509;DHT22;30214;52.246;14.408;2024-01-11T05:06:16;-9.30;99.90
44509;DHT22;30214;52.246;14.408;2024-01-11T05:08:43;-9.30;99.90
44509;DHT22;30214;52.246;14.408;2024-01-11T05:11:14;-9.30;99.90
44509;DHT22;30214;52.246;14.408;2024-01-11T05:13:43;-9.30;99.90
44509;DHT22;30214;52.246;14.408;2024-01-11T05:16:17;-9.30;99.90
44509;DHT22;30214;52.246;14.408;2024-01-11T05:18:45;-9.20;99.90
44509;DHT22;30214;52.246;14.408;2024-01-11T05:21:12;-9.20;99.90
44509;DHT22;30214;52.246;14.408;2024-01-11T05:23:39;-9.20;99.90
44509;DHT22;30214;52.246;14.408;2024-01-11T05:26:06;-9.20;99.90
44509;DHT22;30214;52.246;14.408;2024-01-11T05:28:34;-9.10;99.90
44509;DHT22;30214;52.246;14.408;2024-01-11T05:31:00;-9.00;99.90
44509;DHT22;30214;52.246;14.408;2024-01-11T05:33:30;-8.80;99.90
44509;DHT22;30214;52.246;14.408;2024-01-11T05:35:57;-8.70;99.90
44509;DHT22;30214;52.246;14.408;2024-01-11T05:38:24;-8.70;99.90
44509;DHT22;30214;52.246;14.408;2024-01-11T05:40:50;-8.70;99.90
44509;DHT22;30214;52.246;14.408;2024-01-11T05:43:17;-8.60;99.90
44509;DHT22;30214;52.246;14.408;2024-01-11T05:45:44;-8.60;99.90
44509;DHT22;30214;52.246;14.408;2024-01-11T05:48:12;-8.50;99.90
44509;DHT22;30214;52.246;14.408;2024-01-11T05:50:40;-8.40;99.90
44509;DHT22;30214;52.246;14.408;2024-01-11T05:53:08;-8.30;99.90
44509;DHT22;30214;52.246;14.408;2024-01-11T05:55:35;-8.20;99.90
44509;DHT22;30214;52.246;14.408;2024-01-11T05:58:03;-8.10;99.90
44509;DHT22;30214;52.246;14.408;2024-01-11T06:00:30;-8.00;99.90
44509;DHT22;30214;52.246;14.408;2024-01-11T06:02:57;-8.00;99.90
44509;DHT22;30214;52.246;14.408;2024-01-11T06:05:25;-8.00;99.90
44509;DHT22;30214;52.246;14.408;2024-01-11T06:07:53;-8.00;99.90
44509;DHT22;30214;52.246;14.408;2024-01-11T06:10:20;-8.00;99.90
44509;DHT22;30214;52.246;14.408;2024-01-11T06:12:47;-7.90;99.90
44509;DHT22;30214;52.246;14.408;2024-01-11T06:15:14;-7.80;99.90
44509;DHT22;30214;52.246;14.408;2024-01-11T06:17:44;-7.80;99.90
44509;DHT22;30214;52.246;14.408;2024-01-11T06:20:11;-7.80;99.90
44509;DHT22;30214;52.246;14.408;2024-01-11T06:22:38;-7.80;99.90
44509;DHT22;30214;52.246;14.408;2024-01-11T06:25:06;-7.80;99.90
44509;DHT22;30214;52.246;14.408;2024-01-11T06:27:34;-7.90;99.90
44509;DHT22;30214;52.246;14.408;2024-01-11T06:30:01;-7.90;99.90
44509;DHT22;30214;52.246;14.408;2024-01-11T06:32:28;-7.90;99.90
44509;DHT22;30214;52.246;14.408;2024-01-11T06:34:55;-7.80;99.90
44509;DHT22;30214;52.246;14.408;2024-01-11T06:37:22;-7.80;99.90
44509;DHT22;30214;52.246;14.408;2024-01-11T06:39:49;-7.80;99.90
44509;DHT22;30214;52.246;14.408;2024-01-11T06:42:17;-7.80;99.90
44509;DHT22;30214;52.246;14.408;2024-01-11T06:44:44;-7.80;99.90
44509;DHT22;30214;52.246;14.408;2024-01-11T06:47:12;-7.70;99.90
44509;DHT22;30214;52.246;14.408;2024-01-11T06:49:40;-7.70;99.90
44509;DHT22;30214;52.246;14.408;2024-01-11T06:52:07;-7.70;99.90
44509;DHT22;30214;52.246;14.408;2024-01-11T06:54:35;-7.70;99.90
44509;DHT22;30214;52.246;14.408;2024-01-11T06:57:01;-7.70;99.90
44509;DHT22;30214;52.246;14.408;2024-01-11T06:59:30;-7.70;99.90
44509;DHT22;30214;52.246;14.408;2024-01-11T07:01:57;-7.70;99.90
44509;DHT22;30214;52.246;14.408;2024-01-11T07:04:24;-7.70;99.90
44509;DHT22;30214;52.246;14.408;2024-01-11T07:06:51;-7.60;99.90
44509;DHT22;30214;52.246;14.408;2024-01-11T07:09:18;-7.60;99.90
44509;DHT22;30214;52.246;14.408;2024-01-11T07:11:45;-7.60;99.90
44509;DHT22;30214;52.246;14.408;2024-01-11T07:14:13;-7.50;99.90
44509;DHT22;30214;52.246;14.408;2024-01-11T07:16:41;-7.40;99.90
44509;DHT22;30214;52.246;14.408;2024-01-11T07:19:08;-7.40;99.90
44509;DHT22;30214;52.246;14.408;2024-01-11T07:21:35;-7.40;99.90
44509;DHT22;30214;52.246;14.408;2024-01-11T07:24:02;-7.30;99.90
44509;DHT22;30214;52.246;14.408;2024-01-11T07:26:30;-7.30;99.90
44509;DHT22;30214;52.246;14.408;2024-01-11T07:28:57;-7.20;99.90
44509;DHT22;30214;52.246;14.408;2024-01-11T07:31:24;-7.20;99.90
44509;DHT22;30214;52.246;14.408;2024-01-11T07:33:52;-7.20;99.90
44509;DHT22;30214;52.246;14.408;2024-01-11T07:36:19;-7.20;99.90
44509;DHT22;30214;52.246;14.408;2024-01-11T07:38:46;-7.20;99.90
44509;DHT22;30214;52.246;14.408;2024-01-11T07:41:14;-7.20;99.90
44509;DHT22;30214;52.246;14.408;2024-01-11T07:43:41;-7.20;99.90
44509;DHT22;30214;52.246;14.408;2024-01-11T07:46:08;-7.30;99.90
44509;DHT22;30214;52.246;14.408;2024-01-11T07:48:35;-7.20;99.90
44509;DHT22;30214;52.246;14.408;2024-01-11T07:51:04;-7.20;99.90
44509;DHT22;30214;52.246;14.408;2024-01-11T07:53:31;-7.10;99.90
44509;DHT22;30214;52.246;14.408;2024-01-11T07:55:58;-7.10;99.90
44509;DHT22;30214;52.246;14.408;2024-01-11T07:58:25;-7.00;99.90
44509;DHT22;30214;52.246;14.408;2024-01-11T08:00:52;-7.00;99.90
44509;DHT22;30214;52.246;14.408;2024-01-11T08:03:19;-6.90;99.90
44509;DHT22;30214;52.246;14.408;2024-01-11T08:05:46;-6.90;99.90
44509;DHT22;30214;52.246;14.408;2024-01-11T08:08:17;-6.90;99.90
44509;DHT22;30214;52.246;14.408;2024-01-11T08:10:44;-6.90;99.90
44509;DHT22;30214;52.246;14.408;2024-01-11T08:13:11;-6.80;99.90
44509;DHT22;30214;52.246;14.408;2024-01-11T08:15:39;-6.80;99.90
44509;DHT22;30214;52.246;14.408;2024-01-11T08:18:06;-6.70;99.90
44509;DHT22;30214;52.246;14.408;2024-01-11T08:20:32;-6.70;99.90
44509;DHT22;30214;52.246;14.408;2024-01-11T08:23:00;-6.60;99.90
44509;DHT22;30214;52.246;14.408;2024-01-11T08:25:28;-6.60;99.90
44509;DHT22;30214;52.246;14.408;2024-01-11T08:27:55;-6.50;99.90
44509;DHT22;30214;52.246;14.408;2024-01-11T08:30:23;-6.50;99.90
44509;DHT22;30214;52.246;14.408;2024-01-11T08:32:49;-6.50;99.90
44509;DHT22;30214;52.246;14.408;2024-01-11T08:35:16;-6.40;99.90
44509;DHT22;30214;52.246;14.408;2024-01-11T08:37:43;-6.30;99.90
44509;DHT22;30214;52.246;14.408;2024-01-11T08:40:11;-6.30;99.90
44509;DHT22;30214;52.246;14.408;2024-01-11T08:42:42;-6.20;99.90
44509;DHT22;30214;52.246;14.408;2024-01-11T08:45:09;-6.20;99.90
44509;DHT22;30214;52.246;14.408;2024-01-11T08:47:43;-6.10;99.90
44509;DHT22;30214;52.246;14.408;2024-01-11T08:50:12;-6.00;99.90
44509;DHT22;30214;52.246;14.408;2024-01-11T08:52:39;-6.00;99.90
44509;DHT22;30214;52.246;14.408;2024-01-11T08:55:06;-5.90;99.90
44509;DHT22;30214;52.246;14.408;2024-01-11T08:57:34;-5.90;99.90
44509;DHT22;30214;52.246;14.408;2024-01-11T09:00:04;-5.80;99.90
44509;DHT22;30214;52.246;14.408;2024-01-11T09:02:32;-5.80;99.90
44509;DHT22;30214;52.246;14.408;2024-01-11T09:05:00;-5.70;99.90
44509;DHT22;30214;52.246;14.408;2024-01-11T09:07:27;-5.70;99.90
44509;DHT22;30214;52.246;14.408;2024-01-11T09:09:55;-5.70;99.90
44509;DHT22;30214;52.246;14.408;2024-01-11T09:12:21;-5.70;99.90
44509;DHT22;30214;52.246;14.408;2024-01-11T09:14:48;-5.60;99.90
44509;DHT22;30214;52.246;14.408;2024-01-11T09:17:17;-5.60;99.90
44509;DHT22;30214;52.246;14.408;2024-01-11T09:19:44;-5.50;99.90
44509;DHT22;30214;52.246;14.408;2024-01-11T09:22:11;-5.50;99.90
44509;DHT22;30214;52.246;14.408;2024-01-11T09:24:38;-5.40;99.90
44509;DHT22;30214;52.246;14.408;2024-01-11T09:27:05;-5.40;99.90
44509;DHT22;30214;52.246;14.408;2024-01-11T09:29:32;-5.30;99.90
44509;DHT22;30214;52.246;14.408;2024-01-11T09:31:59;-5.30;99.90
44509;DHT22;30214;52.246;14.408;2024-01-11T09:34:27;-5.20;99.90
44509;DHT22;30214;52.246;14.408;2024-01-11T09:36:54;-5.20;99.90
44509;DHT22;30214;52.246;14.408;2024-01-11T09:39:24;-5.10;99.90
44509;DHT22;30214;52.246;14.408;2024-01-11T09:41:52;-5.00;99.90
44509;DHT22;30214;52.246;14.408;2024-01-11T09:44:24;-5.00;99.90
44509;DHT22;30214;52.246;14.408;2024-01-11T09:46:52;-4.80;99.90
44509;DHT22;30214;52.246;14.408;2024-01-11T09:49:20;-4.80;99.90
44509;DHT22;30214;52.246;14.408;2024-01-11T09:51:50;-4.80;99.90
44509;DHT22;30214;52.246;14.408;2024-01-11T09:54:18;-4.80;99.90
44509;DHT22;30214;52.246;14.408;2024-01-11T09:56:46;-4.80;99.90
44509;DHT22;30214;52.246;14.408;2024-01-11T09:59:15;-4.80;99.90
44509;DHT22;30214;52.246;14.408;2024-01-11T10:01:44;-4.70;99.90
44509;DHT22;30214;52.246;14.408;2024-01-11T10:04:11;-4.70;99.90
44509;DHT22;30214;52.246;14.408;2024-01-11T10:06:39;-4.70;99.90
44509;DHT22;30214;52.246;14.408;2024-01-11T10:09:08;-4.70;99.90
44509;DHT22;30214;52.246;14.408;2024-01-11T10:11:35;-4.70;99.90
44509;DHT22;30214;52.246;14.408;2024-01-11T10:14:03;-4.60;99.90
44509;DHT22;30214;52.246;14.408;2024-01-11T10:16:30;-4.50;99.90
44509;DHT22;30214;52.246;14.408;2024-01-11T10:18:57;-4.50;99.90
44509;DHT22;30214;52.246;14.408;2024-01-11T10:21:24;-4.40;99.90
44509;DHT22;30214;52.246;14.408;2024-01-11T10:23:54;-4.40;99.90
44509;DHT22;30214;52.246;14.408;2024-01-11T10:26:22;-4.30;99.90
44509;DHT22;30214;52.246;14.408;2024-01-11T10:28:49;-4.30;99.90
44509;DHT22;30214;52.246;14.408;2024-01-11T10:31:16;-4.30;99.90
44509;DHT22;30214;52.246;14.408;2024-01-11T10:33:44;-4.20;99.90
44509;DHT22;30214;52.246;14.408;2024-01-11T10:36:12;-4.10;99.90
44509;DHT22;30214;52.246;14.408;2024-01-11T10:38:39;-4.00;99.90
44509;DHT22;30214;52.246;14.408;2024-01-11T10:41:06;-3.90;99.90
44509;DHT22;30214;52.246;14.408;2024-01-11T10:43:36;-3.80;99.90
44509;DHT22;30214;52.246;14.408;2024-01-11T10:46:04;-3.80;99.90
44509;DHT22;30214;52.246;14.408;2024-01-11T10:48:33;-3.70;99.90
44509;DHT22;30214;52.246;14.408;2024-01-11T10:51:05;-3.70;99.90
44509;DHT22;30214;52.246;14.408;2024-01-11T10:53:36;-3.80;99.90
44509;DHT22;30214;52.246;14.408;2024-01-11T10:56:09;-3.80;99.90
44509;DHT22;30214;52.246;14.408;2024-01-11T10:58:39;-3.80;99.90
44509;DHT22;30214;52.246;14.408;2024-01-11T11:01:07;-3.80;99.90
44509;DHT22;30214;52.246;14.408;2024-01-11T11:03:36;-3.80;99.90
44509;DHT22;30214;52.246;14.408;2024-01-11T11:06:04;-3.80;99.90
44509;DHT22;30214;52.246;14.408;2024-01-11T11:08:33;-3.80;99.90
44509;DHT22;30214;52.246;14.408;2024-01-11T11:11:02;-3.80;99.90
44509;DHT22;30214;52.246;14.408;2024-01-11T11:13:31;-3.80;99.90
44509;DHT22;30214;52.246;14.408;2024-01-11T11:16:01;-3.70;99.90
44509;DHT22;30214;52.246;14.408;2024-01-11T11:18:29;-3.70;99.90
44509;DHT22;30214;52.246;14.408;2024-01-11T11:20:57;-3.60;99.90
44509;DHT22;30214;52.246;14.408;2024-01-11T11:23:25;-3.60;99.90
44509;DHT22;30214;52.246;14.408;2024-01-11T11:25:53;-3.70;99.90
44509;DHT22;30214;52.246;14.408;2024-01-11T11:28:22;-3.60;99.90
44509;DHT22;30214;52.246;14.408;2024-01-11T11:30:49;-3.60;99.90
44509;DHT22;30214;52.246;14.408;2024-01-11T11:33:20;-3.60;99.90
44509;DHT22;30214;52.246;14.408;2024-01-11T11:35:51;-3.60;99.90
44509;DHT22;30214;52.246;14.408;2024-01-11T11:38:20;-3.50;99.90
44509;DHT22;30214;52.246;14.408;2024-01-11T11:40:47;-3.50;99.90
44509;DHT22;30214;52.246;14.408;2024-01-11T11:43:16;-3.50;99.90
44509;DHT22;30214;52.246;14.408;2024-01-11T11:45:45;-3.40;99.90
44509;DHT22;30214;52.246;14.408;2024-01-11T11:51:17;-3.50;99.90
44509;DHT22;30214;52.246;14.408;2024-01-11T11:53:46;-3.40;99.90
44509;DHT22;30214;52.246;14.408;2024-01-11T11:56:15;-3.50;99.90
44509;DHT22;30214;52.246;14.408;2024-01-11T11:58:45;-3.40;99.90
44509;DHT22;30214;52.246;14.408;2024-01-11T12:01:14;-3.40;99.90
44509;DHT22;30214;52.246;14.408;2024-01-11T12:03:43;-3.40;99.90
44509;DHT22;30214;52.246;14.408;2024-01-11T12:06:18;-3.40;99.90
44509;DHT22;30214;52.246;14.408;2024-01-11T12:08:48;-3.40;99.90
44509;DHT22;30214;52.246;14.408;2024-01-11T12:11:17;-3.40;99.90
44509;DHT22;30214;52.246;14.408;2024-01-11T12:13:45;-3.40;99.90
44509;DHT22;30214;52.246;14.408;2024-01-11T12:16:13;-3.40;99.90
44509;DHT22;30214;52.246;14.408;2024-01-11T12:18:40;-3.30;99.90
44509;DHT22;30214;52.246;14.408;2024-01-11T12:21:07;-3.20;99.90
44509;DHT22;30214;52.246;14.408;2024-01-11T12:23:36;-3.20;99.90
44509;DHT22;30214;52.246;14.408;2024-01-11T12:26:20;-3.30;99.90
44509;DHT22;30214;52.246;14.408;2024-01-11T12:28:48;-3.20;99.90
44509;DHT22;30214;52.246;14.408;2024-01-11T12:31:16;-3.20;99.90
44509;DHT22;30214;52.246;14.408;2024-01-11T12:33:44;-3.10;99.90
44509;DHT22;30214;52.246;14.408;2024-01-11T12:36:11;-3.20;99.90
44509;DHT22;30214;52.246;14.408;2024-01-11T12:38:40;-3.20;99.90
44509;DHT22;30214;52.246;14.408;2024-01-11T12:41:13;-3.20;99.90
44509;DHT22;30214;52.246;14.408;2024-01-11T12:43:46;-3.10;99.90
44509;DHT22;30214;52.246;14.408;2024-01-11T12:46:17;-3.10;99.90
44509;DHT22;30214;52.246;14.408;2024-01-11T12:48:44;-3.00;99.90
44509;DHT22;30214;52.246;14.408;2024-01-11T12:51:12;-3.00;99.90
44509;DHT22;30214;52.246;14.408;2024-01-11T12:53:40;-3.00;99.90
44509;DHT22;30214;52.246;14.408;2024-01-11T12:56:08;-3.00;99.90
44509;DHT22;30214;52.246;14.408;2024-01-11T12:58:35;-3.00;99.90
44509;DHT22;30214;52.246;14.408;2024-01-11T13:01:03;-3.00;99.90
44509;DHT22;30214;52.246;14.408;2024-01-11T13:03:30;-3.10;99.90
44509;DHT22;30214;52.246;14.408;2024-01-11T13:05:57;-3.10;99.90
44509;DHT22;30214;52.246;14.408;2024-01-11T13:08:24;-3.10;99.90
44509;DHT22;30214;52.246;14.408;2024-01-11T13:10:54;-3.10;99.90
44509;DHT22;30214;52.246;14.408;2024-01-11T13:13:21;-3.10;99.90
44509;DHT22;30214;52.246;14.408;2024-01-11T13:15:48;-3.10;99.90
44509;DHT22;30214;52.246;14.408;2024-01-11T13:18:16;-3.00;99.90
44509;DHT22;30214;52.246;14.408;2024-01-11T13:20:43;-3.00;99.90
44509;DHT22;30214;52.246;14.408;2024-01-11T13:23:14;-3.00;99.90
44509;DHT22;30214;52.246;14.408;2024-01-11T13:25:42;-3.00;99.90
44509;DHT22;30214;52.246;14.408;2024-01-11T13:28:10;-3.00;99.90
44509;DHT22;30214;52.246;14.408;2024-01-11T13:30:38;-2.90;99.90
44509;DHT22;30214;52.246;14.408;2024-01-11T13:33:05;-2.90;99.90
44509;DHT22;30214;52.246;14.408;2024-01-11T13:35:33;-3.00;99.90
44509;DHT22;30214;52.246;14.408;2024-01-11T13:38:00;-3.00;99.90
44509;DHT22;30214;52.246;14.408;2024-01-11T13:40:28;-2.90;99.90
44509;DHT22;30214;52.246;14.408;2024-01-11T13:42:55;-2.90;99.90
44509;DHT22;30214;52.246;14.408;2024-01-11T13:45:23;-2.90;99.90
44509;DHT22;30214;52.246;14.408;2024-01-11T13:47:51;-2.80;99.90
44509;DHT22;30214;52.246;14.408;2024-01-11T13:50:19;-2.80;99.90
44509;DHT22;30214;52.246;14.408;2024-01-11T13:52:46;-2.90;99.90
44509;DHT22;30214;52.246;14.408;2024-01-11T13:55:13;-2.90;99.90
44509;DHT22;30214;52.246;14.408;2024-01-11T13:57:40;-2.90;99.90
44509;DHT22;30214;52.246;14.408;2024-01-11T14:00:09;-2.80;99.90
44509;DHT22;30214;52.246;14.408;2024-01-11T14:02:38;-2.80;99.90
44509;DHT22;30214;52.246;14.408;2024-01-11T14:05:06;-2.80;99.90
44509;DHT22;30214;52.246;14.408;2024-01-11T14:07:37;-2.80;99.90
44509;DHT22;30214;52.246;14.408;2024-01-11T14:10:04;-2.90;99.90
44509;DHT22;30214;52.246;14.408;2024-01-11T14:12:32;-2.90;99.90
44509;DHT22;30214;52.246;14.408;2024-01-11T14:15:03;-2.90;99.90
44509;DHT22;30214;52.246;14.408;2024-01-11T14:17:30;-2.90;99.90
44509;DHT22;30214;52.246;14.408;2024-01-11T14:20:00;-2.90;99.90
44509;DHT22;30214;52.246;14.408;2024-01-11T14:22:28;-2.90;99.90
44509;DHT22;30214;52.246;14.408;2024-01-11T14:24:55;-2.90;99.90
44509;DHT22;30214;52.246;14.408;2024-01-11T14:27:22;-2.90;99.90
44509;DHT22;30214;52.246;14.408;2024-01-11T14:29:49;-2.80;99.90
44509;DHT22;30214;52.246;14.408;2024-01-11T14:32:16;-2.80;99.90
44509;DHT22;30214;52.246;14.408;2024-01-11T14:34:44;-2.70;99.90
44509;DHT22;30214;52.246;14.408;2024-01-11T14:37:15;-2.80;99.90
44509;DHT22;30214;52.246;14.408;2024-01-11T14:39:43;-2.80;99.90
44509;DHT22;30214;52.246;14.408;2024-01-11T14:42:10;-2.70;99.90
44509;DHT22;30214;52.246;14.408;2024-01-11T14:44:37;-2.70;99.90
44509;DHT22;30214;52.246;14.408;2024-01-11T14:47:04;-2.70;99.90
44509;DHT22;30214;52.246;14.408;2024-01-11T14:49:32;-2.70;99.90
44509;DHT22;30214;52.246;14.408;2024-01-11T14:51:59;-2.70;99.90
44509;DHT22;30214;52.246;14.408;2024-01-11T14:54:28;-2.70;99.90
44509;DHT22;30214;52.246;14.408;2024-01-11T14:56:54;-2.60;99.90
44509;DHT22;30214;52.246;14.408;2024-01-11T14:59:21;-2.60;99.90
44509;DHT22;30214;52.246;14.408;2024-01-11T15:01:48;-2.60;99.90
44509;DHT22;30214;52.246;14.408;2024-01-11T15:04:15;-2.60;99.90
44509;DHT22;30214;52.246;14.408;2024-01-11T15:06:43;-2.50;99.90
44509;DHT22;30214;52.246;14.408;2024-01-11T15:09:11;-2.50;99.90
44509;DHT22;30214;52.246;14.408;2024-01-11T15:11:39;-2.60;99.90
44509;DHT22;30214;52.246;14.408;2024-01-11T15:14:06;-2.50;99.90
44509;DHT22;30214;52.246;14.408;2024-01-11T15:16:34;-2.60;99.90
44509;DHT22;30214;52.246;14.408;2024-01-11T15:19:01;-2.60;99.90
44509;DHT22;30214;52.246;14.408;2024-01-11T15:21:29;-2.60;99.90